Tiempo atmosférico en la estación meteorológica de Arucas, Las Palmas (86 m.)

Fecha
DESCASC
Temp. máxima en grados centígrados (hora)
DESCASC
Temp. mínima en grados centígrados (hora)
DESCASC
Temp. media en grados centígrados
DESCASC
Racha de viento máxima en m/sg (hora)
DESCASC
Velocidad máxima media en intervalos de 10 minutos(hora)
DESCASC
Precipitaciones diarias en mm
DESCASC
Precipitaciones de 00:00 a 06:00 en mm
DESCASC
Precipitaciones de 06:00 a 12:00 en mm
DESCASC
Precipitaciones de 12:00 a 18:00 en mm
DESCASC
Precipitaciones de 18:00 a 24:00 en mm
DESCASC
23-11-2017 24 (11:20) 14.8 (02:20) 19.4 7.22 (11:10) 4.44 (05:00) 0 0 0 0 0
22-11-2017 25.9 (13:50) 16.5 (08:00) 21.2 4.72 (01:30) 3.61 (01:40) 0 0 0 0 0
21-11-2017 27.4 (12:20) 18.5 (05:40) 22.9 11.67 (11:20) 6.94 (11:30) 0 0 0 0 0
20-11-2017 27.9 (14:30) 17.3 (22:00) 22.6 13.61 (11:40) 8.06 (13:00) 0 0 0 0 0
19-11-2017 22.8 (12:50) 18.8 (00:00) 20.8 7.22 (00:30) 4.72 (10:10) 0 0 0 0 0
18-11-2017 22.5 (13:30) 18 (00:00) 20.3 5.83 (02:10) 3.89 (23:59) 0 0 0 0 0
17-11-2017 22.4 (13:30) 17.2 (00:00) 19.8 8.33 (09:40) 5.28 (10:50) 0 0 0 0 0
16-11-2017 22 (12:30) 17 (00:00) 19.5 6.39 (15:00) 3.89 (15:00) 0 0 0 0 0
15-11-2017 22.4 (14:00) 16.4 (00:00) 19.4 4.72 (14:40) 2.5 (14:40) 0 0 0 0 0
14-11-2017 22.6 (13:20) 18.2 (00:00) 20.4 6.39 (14:10) 3.61 (13:40) 0 0 0 0 0
13-11-2017 22.7 (13:40) 17.2 (00:00) 20 5.83 (11:20) 3.61 (11:20) 0 0 0 0 0
12-11-2017 26.7 (14:10) 19 (00:00) 22.9 8.61 (11:00) 5.28 (12:40) 0 0 0 0 0
11-11-2017 23.7 (14:50) 18.7 (00:00) 21.2 8.61 (15:40) 5.28 (15:40) 0.2 0.2 0 0 0
10-11-2017 23.3 (14:20) 19.3 (00:00) 21.3 7.78 (11:50) 5 (11:50) 0 0 0 0 0
09-11-2017 23.9 (12:00) 20.4 (00:00) 22.1 6.67 (19:00) 3.61 (19:00) 0 0 0 0 0
08-11-2017 24.3 (13:00) 18.4 (00:00) 21.3 4.44 (07:40) 2.5 (07:50) 0 0 0 0 0
07-11-2017 23.5 (12:10) 20.3 (00:00) 21.9 5.56 (13:10) 3.33 (16:10) 0 0 0 0 0
06-11-2017 22.8 (14:00) 19.3 (00:00) 21 7.78 (08:30) 4.17 (07:10) 0.4 0.4 0 0 0
05-11-2017 24.1 (13:00) 20.3 (00:00) 22.2 8.33 (07:00) 4.17 (22:50) 0 0 0 0 0
04-11-2017 23.7 (12:40) 19.6 (00:00) 21.7 6.11 (10:50) 3.33 (10:40) 0.2 0.2 0 0 0
03-11-2017 24.1 (14:40) 19.4 (00:00) 21.8 6.39 (16:20) 3.33 (16:50) 0 0 0 0 0
02-11-2017 23.7 (12:40) 18.7 (21:00) 21.2 5.28 (15:20) 3.06 (15:10) 0 0 0 0 0
01-11-2017 24 (12:20) 18.7 (00:00) 21.4 6.11 (13:10) 3.89 (12:20) 0 0 0 0 0
31-10-2017 23.7 (14:00) 17.8 (00:00) 20.8 5.56 (13:00) 3.61 (11:10) 0 0 0 0 0
30-10-2017 24 (12:30) 17.4 (00:00) 20.7 4.17 (12:40) 2.5 (12:50) 0.2 0 0.2 0 0
29-10-2017 23.9 (12:00) 16.8 (00:00) 20.3 4.17 (09:40) 2.78 (11:00) 0 0 0 0 0
28-10-2017 30.4 (15:00) 21.8 (00:00) 26.1 10.83 (11:30) 6.67 (11:30) 0 0 0 0 0
27-10-2017 29.9 (16:00) 23.2 (00:00) 26.6 13.89 (05:30) 7.5 (11:50) 0 0 0 0 0
26-10-2017 33.2 (12:40) 24.3 (00:00) 28.8 12.22 (12:50) 7.22 (13:00) 0 0 0 0 0

Gráficas

Temp. máximas Temp. mínimas Temp. medias Precipitaciones Rachas de viento máximas Velocidades máximas media en intervalos de 10 minutos

Datos horarios

Fecha y hora oficial Temperatura (ºC) Velocidad del viento (km/h) Dirección del viento Racha (km/h) Dirección de racha Precipitación (mm) Presión (hPa) Tendencia (hPa) Humedad (%)
2017-11-24 23:00:00 21.2 6 Oeste 11 Noroeste 0 -- -- 55
2017-11-24 22:00:00 21 5 Sudeste 6 Sudeste 0 -- -- 56
2017-11-24 21:00:00 21.5 0 Calma 12 Sudoeste 0 -- -- 58
2017-11-24 20:00:00 21.3 7 Sudoeste 13 Oeste 0 -- -- 79
2017-11-24 19:00:00 21.4 3 Sudeste 11 Oeste 0 -- -- 76
2017-11-24 18:00:00 22.3 2 Este 9 Este 0 -- -- 74
2017-11-24 17:00:00 22.7 6 Oeste 15 Oeste 0 -- -- 73
2017-11-24 16:00:00 22.9 10 Oeste 20 Oeste 0 -- -- 69
2017-11-24 15:00:00 23.5 5 Nordeste 19 Este 0 -- -- 69
2017-11-24 14:00:00 24.4 12 Este 22 Este 0 -- -- 56
2017-11-24 13:00:00 24.8 10 Sudeste 22 Sudeste 0 -- -- 52
2017-11-24 12:00:00 24 10 Sudeste 21 Sudeste 0 -- -- 62
2017-11-24 11:00:00 22.7 15 Sudeste 24 Sudeste 0 -- -- 64
2017-11-24 10:00:00 21.5 11 Sudeste 20 Sur 0 -- -- 71
2017-11-24 09:00:00 20.1 7 Sur 14 Sudeste 0 -- -- 71
2017-11-24 08:00:00 18.6 10 Sudeste 23 Sur 0 -- -- 70
2017-11-24 07:00:00 19.1 14 Sudeste 21 Sur 0 -- -- 59
2017-11-24 06:00:00 19.3 14 Sur 21 Sur 0 -- -- 72
2017-11-24 05:00:00 19.2 12 Sur 23 Sudeste 0 -- -- 74
2017-11-24 04:00:00 19.5 13 Sur 22 Sudeste 0 -- -- 73
2017-11-24 03:00:00 19.6 12 Sur 27 Sur 0 -- -- 60
2017-11-24 02:00:00 17.1 8 Sudeste 13 Sudeste 0 -- -- 70
2017-11-24 01:00:00 16.3 3 Oeste 10 Oeste 0 -- -- 69
2017-11-24 00:00:00 16.6 3 Oeste 7 Oeste 0 -- -- 69
2017-11-23 23:00:00 17.3 2 Sudeste 12 Sudeste 0 -- -- 71
2017-11-23 22:00:00 18.9 4 Sudeste 10 Sur 0 -- -- 67
2017-11-23 21:00:00 17.9 2 Sudoeste 5 Sur 0 -- -- 84
2017-11-23 20:00:00 18.7 4 Sudoeste 5 Sudoeste 0 -- -- 83
2017-11-23 19:00:00 19.7 4 Oeste 9 Oeste 0 -- -- 76
2017-11-23 18:00:00 21.1 5 Noroeste 9 Noroeste 0 -- -- 72
2017-11-23 17:00:00 22.3 4 Noroeste 9 Noroeste 0 -- -- 66
2017-11-23 16:00:00 22.6 7 Noroeste 14 Noroeste 0 -- -- 58
2017-11-23 15:00:00 23.1 7 Noroeste 15 Norte 0 -- -- 64
2017-11-23 14:00:00 23.1 9 Noroeste 15 Noroeste 0 -- -- 67
2017-11-23 13:00:00 23.6 7 Nordeste 19 Este 0 -- -- 60
2017-11-23 12:00:00 23.3 12 Este 26 Este 0 -- -- 66
2017-11-23 11:00:00 23.9 13 Este 25 Este 0 -- -- 56
2017-11-23 10:00:00 22.7 10 Nordeste 17 Este 0 -- -- 47
2017-11-23 09:00:00 20.8 5 Este 9 Nordeste 0 -- -- 37
2017-11-23 08:00:00 15.2 0 Calma 4 Sur 0 -- -- 59
2017-11-23 07:00:00 16.1 4 Sudoeste 13 Sur 0 -- -- 40
2017-11-23 06:00:00 20.3 9 Sur 25 Sur 0 -- -- 25
2017-11-23 05:00:00 20.2 16 Sur 23 Sur 0 -- -- 26
2017-11-23 04:00:00 19.1 7 Sur 17 Sur 0 -- -- 29
2017-11-23 03:00:00 17.6 8 Sudeste 12 Sudeste 0 -- -- 43
2017-11-23 02:00:00 15.1 0 Calma 4 Oeste 0 -- -- 60
2017-11-23 01:00:00 16.6 0 Calma 6 Sudoeste 0 -- -- 57
2017-11-23 00:00:00 18.6 4 Sur 10 Sur 0 -- -- 54
2017-11-22 23:00:00 18 4 Sur 8 Sur 0 -- -- 61
2017-11-22 22:00:00 18.6 6 Sur 9 Sur 0 -- -- 56
2017-11-22 21:00:00 17.4 0 Calma 8 Sur 0 -- -- 68
2017-11-22 20:00:00 18.9 5 Sur 9 Sur 0 -- -- 58
2017-11-22 19:00:00 18.8 0 Calma 3 Este 0 -- -- 67
2017-11-22 18:00:00 21.3 0 Calma 5 Norte 0 -- -- 59
2017-11-22 17:00:00 23.9 3 Norte 9 Noroeste 0 -- -- 53
2017-11-22 16:00:00 24.7 6 Noroeste 13 Noroeste 0 -- -- 53
2017-11-22 15:00:00 25.1 6 Noroeste 13 Norte 0 -- -- 46
2017-11-22 14:00:00 25.8 6 Noroeste 10 Noroeste 0 -- -- 41
2017-11-22 13:00:00 25.3 5 Norte 10 Noroeste 0 -- -- 36
2017-11-22 12:00:00 24.9 4 Norte 9 Nordeste 0 -- -- 31
2017-11-22 11:00:00 24.9 4 Norte 8 Norte 0 -- -- 31
2017-11-22 10:00:00 24.2 2 Nordeste 6 Norte 0 -- -- 32
2017-11-22 09:00:00 20.6 2 Sudeste 4 Sudeste 0 -- -- 42
2017-11-22 08:00:00 16.5 3 Sudoeste 8 Sudoeste 0 -- -- 45
2017-11-22 07:00:00 17.5 0 Calma 9 Sudeste 0 -- -- 54
2017-11-22 06:00:00 19.1 8 Sudeste 15 Sudeste 0 -- -- 30
2017-11-22 05:00:00 19.1 7 Sudoeste 12 Sudoeste 0 -- -- 37
2017-11-22 04:00:00 20.3 8 Sudeste 17 Sudeste 0 -- -- 30
2017-11-22 03:00:00 18.3 2 Sudeste 13 Sudeste 0 -- -- 44
2017-11-22 02:00:00 19.6 4 Sudoeste 17 Oeste 0 -- -- 46
2017-11-22 01:00:00 19.7 3 Sudeste 13 Este 0 -- -- 54
2017-11-22 00:00:00 19.8 5 Sudeste 16 Sudoeste 0 -- -- 35
2017-11-21 23:00:00 21.2 12 Sudoeste 19 Sudoeste 0 -- -- 46
2017-11-21 22:00:00 22.1 11 Sudoeste 20 Sudoeste 0 -- -- 57
2017-11-21 21:00:00 20.2 3 Sudeste 10 Oeste 0 -- -- 67
2017-11-21 20:00:00 21.3 8 Sudoeste 12 Oeste 0 -- -- 68
2017-11-21 19:00:00 22.2 7 Sudoeste 13 Oeste 0 -- -- 64
2017-11-21 18:00:00 23.3 2 Sudeste 12 Sudeste 0 -- -- 43
2017-11-21 17:00:00 25.3 10 Sudeste 32 Sudeste 0 -- -- 22
2017-11-21 16:00:00 26.4 17 Sudeste 37 Sudeste 0 -- -- 21
2017-11-21 15:00:00 27.3 13 Sudeste 27 Sudeste 0 -- -- 20
2017-11-21 14:00:00 25.9 9 Sudeste 28 Sudeste 0 -- -- 24
2017-11-21 13:00:00 26.7 18 Sudeste 36 Sudeste 0 -- -- 22
2017-11-21 12:00:00 26.8 16 Sudeste 42 Sudeste 0 -- -- 22
2017-11-21 11:00:00 25.7 22 Sudeste 42 Sudeste 0 -- -- 20
2017-11-21 10:00:00 25.6 12 Sudeste 34 Sudeste 0 -- -- 20
2017-11-21 09:00:00 25.5 11 Sudeste 23 Sudeste 0 -- -- 20
2017-11-21 08:00:00 21.3 7 Sur 12 Sudeste 0 -- -- 24
2017-11-21 07:00:00 20.7 6 Sur 12 Sudeste 0 -- -- 25
2017-11-21 06:00:00 18.6 5 Sur 10 Sur 0 -- -- 31
2017-11-21 05:00:00 20.1 9 Sudeste 23 Sudeste 0 -- -- 37
2017-11-21 04:00:00 21.6 13 Sudeste 25 Sudeste 0 -- -- 36
2017-11-21 03:00:00 21.4 10 Sudeste 17 Sudeste 0 -- -- 26
2017-11-21 02:00:00 22 12 Sudeste 22 Sudeste 0 -- -- 27
2017-11-21 01:00:00 21 13 Sudeste 23 Sur 0 -- -- 30
2017-11-21 00:00:00 20.1 8 Sudeste 18 Sudeste 0 -- -- 41
2017-11-20 23:00:00 19.6 9 Sur 13 Sudeste 0 -- -- 53
2017-11-20 22:00:00 17.3 3 Sudeste 7 Este 0 -- -- 62
2017-11-20 21:00:00 18.5 4 Sudoeste 7 Sudoeste 0 -- -- 59
2017-11-20 20:00:00 19.8 5 Sudoeste 10 Sudoeste 0 -- -- 56
2017-11-20 19:00:00 20.8 6 Sudoeste 9 Oeste 0 -- -- 56
2017-11-20 18:00:00 23 6 Oeste 15 Sudoeste 0 -- -- 51
2017-11-20 17:00:00 23.6 3 Nordeste 10 Oeste 0 -- -- 61
2017-11-20 16:00:00 25.4 4 Norte 29 Este 0 -- -- 48
2017-11-20 15:00:00 27 14 Este 33 Sudeste 0 -- -- 43
2017-11-20 14:00:00 26.8 19 Sudeste 45 Sudeste 0 -- -- 36
2017-11-20 13:00:00 25.3 29 Sudeste 45 Sudeste 0 -- -- 47
2017-11-20 12:00:00 25.5 27 Sudeste 49 Sudeste 0 -- -- 49
2017-11-20 11:00:00 25.1 25 Sudeste 44 Sudeste 0 -- -- 48
2017-11-20 10:00:00 24.4 24 Sudeste 41 Sudeste 0 -- -- 48
2017-11-20 09:00:00 23.1 17 Sudeste 33 Sudeste 0 -- -- 48
2017-11-20 08:00:00 20.9 16 Sudeste 26 Sudeste 0 -- -- 47
2017-11-20 07:00:00 18.8 10 Sudeste 18 Sudeste 0 -- -- 59
2017-11-20 06:00:00 18.3 8 Sudeste 18 Sudeste 0 -- -- 74
2017-11-20 05:00:00 18.7 12 Sudeste 21 Sudeste 0 -- -- 83
2017-11-20 04:00:00 18.6 9 Sudeste 15 Sudeste 0 -- -- 83
2017-11-20 03:00:00 19.2 8 Sudeste 14 Sudeste 0 -- -- 82
2017-11-20 02:00:00 19.3 8 Sudeste 19 Sudeste 0 -- -- 82
2017-11-20 01:00:00 19.6 13 Sudeste 23 Sudeste 0 -- -- 83
2017-11-20 00:00:00 19.7 12 Este 23 Este 0 -- -- 82
2017-11-19 23:00:00 19.8 12 Este 22 Este 0 -- -- 83
2017-11-19 22:00:00 19.9 12 Este 24 Este 0 -- -- 80
2017-11-19 21:00:00 19.9 12 Este 21 Este 0 -- -- 81
2017-11-19 20:00:00 20.1 11 Este 23 Este 0 -- -- 80
2017-11-19 19:00:00 20 10 Este 17 Este 0 -- -- 78
2017-11-19 18:00:00 20.2 8 Este 16 Nordeste 0 -- -- 75
2017-11-19 17:00:00 20.8 7 Nordeste 15 Nordeste 0 -- -- 72
2017-11-19 16:00:00 21.5 8 Nordeste 19 Este 0 -- -- 70
2017-11-19 15:00:00 21.8 9 Nordeste 18 Nordeste 0 -- -- 69
2017-11-19 14:00:00 22.2 12 Nordeste 19 Nordeste 0 -- -- 67
2017-11-19 13:00:00 22.1 11 Nordeste 23 Este 0 -- -- 67
2017-11-19 12:00:00 21.8 12 Este 24 Este 0 -- -- 66
2017-11-19 11:00:00 20.9 14 Este 24 Este 0 -- -- 73
2017-11-19 10:00:00 20.5 15 Este 25 Este 0 -- -- 75
2017-11-19 09:00:00 19.9 11 Este 20 Este 0 -- -- 75
2017-11-19 08:00:00 19.1 7 Sudeste 13 Sudeste 0 -- -- 79
2017-11-19 07:00:00 18.8 7 Sudeste 15 Sudeste 0 -- -- 80
2017-11-19 06:00:00 19 8 Sudeste 15 Este 0 -- -- 80
2017-11-19 05:00:00 19.2 6 Este 17 Este 0 -- -- 79
2017-11-19 04:00:00 19.4 10 Este 17 Este 0 -- -- 80
2017-11-19 03:00:00 19.6 11 Sudeste 19 Este 0 -- -- 80
2017-11-19 02:00:00 19.3 9 Sudeste 22 Sudeste 0 -- -- 81
2017-11-19 01:00:00 19.6 12 Este 26 Sudeste 0 -- -- 80
2017-11-19 00:00:00 19.8 14 Este 21 Este 0 -- -- 79
2017-11-18 23:00:00 19.8 12 Este 20 Este 0 -- -- 80
2017-11-18 22:00:00 19.7 7 Este 13 Nordeste 0 -- -- 81
2017-11-18 21:00:00 19.5 5 Este 10 Nordeste 0 -- -- 80
2017-11-18 20:00:00 19.7 5 Este 10 Nordeste 0 -- -- 77
2017-11-18 19:00:00 19.8 7 Nordeste 12 Este 0 -- -- 76
2017-11-18 18:00:00 20.2 7 Nordeste 15 Nordeste 0 -- -- 76
2017-11-18 17:00:00 20.8 6 Nordeste 12 Nordeste 0 -- -- 73
2017-11-18 16:00:00 21.3 5 Nordeste 13 Nordeste 0 -- -- 72
2017-11-18 15:00:00 22.1 9 Nordeste 17 Nordeste 0 -- -- 69
2017-11-18 14:00:00 22.4 9 Nordeste 17 Nordeste 0 -- -- 67
2017-11-18 13:00:00 22.3 10 Nordeste 19 Este 0 -- -- 68
2017-11-18 12:00:00 21.9 13 Nordeste 19 Nordeste 0 -- -- 69
2017-11-18 11:00:00 21.5 9 Nordeste 16 Este 0 -- -- 70
2017-11-18 10:00:00 20.8 3 Sudeste 10 Este 0 -- -- 73
2017-11-18 09:00:00 19.4 5 Sur 11 Sudeste 0 -- -- 76
2017-11-18 08:00:00 18.1 7 Sudeste 13 Sur 0 -- -- 81
2017-11-18 07:00:00 18.2 9 Sur 15 Sur 0 -- -- 79
2017-11-18 06:00:00 18.4 8 Sur 13 Sur 0 -- -- 80
2017-11-18 05:00:00 18.2 8 Sudeste 18 Sudeste 0 -- -- 81
2017-11-18 04:00:00 18.7 12 Sudeste 17 Sudeste 0 -- -- 82
2017-11-18 03:00:00 18.9 9 Sudeste 21 Sudeste 0 -- -- 80
2017-11-18 02:00:00 19.3 11 Este 18 Este 0 -- -- 78
2017-11-18 01:00:00 19.4 13 Sudeste 20 Sudeste 0 -- -- 80
2017-11-18 00:00:00 19.5 11 Sudeste 22 Sudeste 0 -- -- 79
2017-11-17 23:00:00 19.5 14 Sudeste 26 Sudeste 0 -- -- 77
2017-11-17 22:00:00 19.7 13 Sudeste 25 Sudeste 0 -- -- 77
2017-11-17 21:00:00 19.7 4 Este 11 Este 0 -- -- 75
2017-11-17 20:00:00 19.6 5 Este 10 Este 0 -- -- 75
2017-11-17 19:00:00 19.7 6 Este 12 Este 0 -- -- 76
2017-11-17 18:00:00 19.9 7 Este 13 Este 0 -- -- 75
2017-11-17 17:00:00 20.9 8 Nordeste 14 Nordeste 0 -- -- 72
2017-11-17 16:00:00 21.4 8 Nordeste 19 Nordeste 0 -- -- 69
2017-11-17 15:00:00 21.9 11 Nordeste 23 Este 0 -- -- 68
2017-11-17 14:00:00 22.1 13 Este 27 Este 0 -- -- 68
2017-11-17 13:00:00 22.1 14 Este 27 Este 0 -- -- 66
2017-11-17 12:00:00 22.2 15 Este 26 Este 0 -- -- 68
2017-11-17 11:00:00 21.7 15 Este 26 Este 0 -- -- 70
2017-11-17 10:00:00 21.4 14 Este 30 Este 0 -- -- 69
2017-11-17 09:00:00 19.4 13 Sudeste 20 Sudeste 0 -- -- 77
2017-11-17 08:00:00 17.4 14 Sur 19 Sudeste 0 -- -- 81
2017-11-17 07:00:00 17.5 11 Sur 18 Sur 0 -- -- 82
2017-11-17 06:00:00 17.8 10 Sur 14 Sur 0 -- -- 82
2017-11-17 05:00:00 17.3 10 Sur 15 Sur 0 -- -- 80
2017-11-17 04:00:00 17.5 10 Sur 17 Sudeste 0 -- -- 80
2017-11-17 03:00:00 17.9 10 Sur 20 Sur 0 -- -- 80
2017-11-17 02:00:00 17.6 12 Sur 21 Sudeste 0 -- -- 79
2017-11-17 01:00:00 17.7 10 Sur 17 Sur 0 -- -- 78
2017-11-17 00:00:00 18.2 9 Sur 16 Sudeste 0 -- -- 77
2017-11-16 23:00:00 18 8 Sur 16 Sur 0 -- -- 78
2017-11-16 22:00:00 17.9 9 Sur 15 Sur 0 -- -- 77
2017-11-16 21:00:00 18 5 Sur 10 Sudeste 0 -- -- 78
2017-11-16 20:00:00 18 5 Sudeste 8 Este 0 -- -- 78
2017-11-16 19:00:00 18.7 3 Este 7 Nordeste 0 -- -- 75
2017-11-16 18:00:00 19.6 4 Nordeste 10 Este 0 -- -- 71
2017-11-16 17:00:00 20.7 5 Nordeste 12 Nordeste 0 -- -- 67
2017-11-16 16:00:00 21.2 7 Nordeste 19 Nordeste 0 -- -- 66
2017-11-16 15:00:00 21.6 14 Nordeste 23 Nordeste 0 -- -- 65
2017-11-16 14:00:00 21.8 12 Nordeste 19 Este 0 -- -- 65
2017-11-16 13:00:00 21.6 11 Nordeste 17 Este 0 -- -- 64
2017-11-16 12:00:00 21.8 10 Nordeste 15 Nordeste 0 -- -- 63
2017-11-16 11:00:00 21.7 6 Nordeste 13 Este 0 -- -- 64
2017-11-16 10:00:00 20.9 5 Nordeste 10 Nordeste 0 -- -- 65
2017-11-16 09:00:00 19.8 6 Sudeste 11 Sur 0 -- -- 68
2017-11-16 08:00:00 17.6 6 Sur 13 Sur 0 -- -- 76
2017-11-16 07:00:00 17.2 8 Sur 13 Sur 0 -- -- 76
2017-11-16 06:00:00 17.2 8 Sur 13 Sur 0 -- -- 76
2017-11-16 05:00:00 17.2 8 Sur 15 Sur 0 -- -- 76
2017-11-16 04:00:00 17.2 11 Sur 15 Sur 0 -- -- 75
2017-11-16 03:00:00 17.4 9 Sudeste 13 Sudeste 0 -- -- 75
2017-11-16 02:00:00 17.4 5 Sudeste 13 Sur 0 -- -- 75
2017-11-16 01:00:00 17.8 6 Sur 12 Sur 0 -- -- 73
2017-11-16 00:00:00 17.9 7 Sur 11 Sur 0 -- -- 73
2017-11-15 23:00:00 18.4 4 Sudeste 13 Sudeste 0 -- -- 72
2017-11-15 22:00:00 18.1 4 Sudeste 12 Este 0 -- -- 73
2017-11-15 21:00:00 18.9 5 Este 11 Este 0 -- -- 72
2017-11-15 20:00:00 19 3 Nordeste 13 Nordeste 0 -- -- 71
2017-11-15 19:00:00 19.4 2 Noroeste 6 Norte 0 -- -- 69
2017-11-15 18:00:00 20.2 4 Norte 11 Norte 0 -- -- 66
2017-11-15 17:00:00 21.3 6 Nordeste 14 Nordeste 0 -- -- 63
2017-11-15 16:00:00 21.6 7 Nordeste 16 Norte 0 -- -- 63
2017-11-15 15:00:00 22.1 9 Nordeste 17 Nordeste 0 -- -- 61
2017-11-15 14:00:00 22.4 8 Nordeste 13 Nordeste 0 -- -- 63
2017-11-15 13:00:00 22.3 6 Norte 13 Nordeste 0 -- -- 63
2017-11-15 12:00:00 22.2 6 Norte 13 Norte 0 -- -- 59
2017-11-15 11:00:00 22 7 Nordeste 14 Nordeste 0 -- -- 62
2017-11-15 10:00:00 20.5 7 Nordeste 15 Nordeste 0 -- -- 67
2017-11-15 09:00:00 20.2 4 Nordeste 13 Nordeste 0 -- -- 71
2017-11-15 08:00:00 18.4 5 Sudoeste 9 Sudoeste 0 -- -- 76
2017-11-15 07:00:00 16.9 0 Calma 9 Oeste 0 -- -- 78
2017-11-15 06:00:00 17.2 4 Oeste 9 Nordeste 0 -- -- 78
2017-11-15 05:00:00 17.8 4 Noroeste 12 Norte 0 -- -- 80
2017-11-15 04:00:00 16.6 3 Sudeste 6 Sudeste 0 -- -- 79
2017-11-15 03:00:00 18.3 0 Calma 6 Sudoeste 0 -- -- 75
2017-11-15 02:00:00 17.9 3 Sudoeste 6 Sudoeste 0 -- -- 75
2017-11-15 01:00:00 18.5 3 Sur 6 Sur 0 -- -- 73
2017-11-15 00:00:00 18.8 4 Sudeste 10 Sudeste 0 -- -- 71
2017-11-14 23:00:00 18.9 3 Sudeste 8 Sur 0 -- -- 73
2017-11-14 22:00:00 18.2 5 Sur 10 Nordeste 0 -- -- 74
2017-11-14 21:00:00 19.5 5 Nordeste 13 Nordeste 0 -- -- 71
2017-11-14 20:00:00 19.5 3 Este 12 Norte 0 -- -- 70
2017-11-14 19:00:00 19.8 5 Nordeste 13 Nordeste 0 -- -- 67
2017-11-14 18:00:00 20.3 5 Norte 13 Este 0 -- -- 67
2017-11-14 17:00:00 21.3 4 Norte 15 Nordeste 0 -- -- 64
2017-11-14 16:00:00 21.9 8 Nordeste 18 Nordeste 0 -- -- 62
2017-11-14 15:00:00 22.3 10 Nordeste 23 Nordeste 0 -- -- 60
2017-11-14 14:00:00 22.1 12 Nordeste 20 Nordeste 0 -- -- 62
2017-11-14 13:00:00 22.3 11 Nordeste 19 Nordeste 0 -- -- 61
2017-11-14 12:00:00 21.7 7 Nordeste 22 Este 0 -- -- 63
2017-11-14 11:00:00 21.4 11 Nordeste 19 Nordeste 0 -- -- 65
2017-11-14 10:00:00 20.6 3 Nordeste 12 Nordeste 0 -- -- 64
2017-11-14 09:00:00 20 5 Nordeste 16 Norte 0 -- -- 65
2017-11-14 08:00:00 19.4 4 Norte 17 Norte 0 -- -- 68
2017-11-14 07:00:00 19.4 10 Norte 19 Norte 0 -- -- 69
2017-11-14 06:00:00 19.2 4 Norte 18 Nordeste 0 -- -- 68
2017-11-14 05:00:00 19.4 6 Nordeste 19 Nordeste 0 -- -- 69
2017-11-14 04:00:00 19.4 3 Norte 18 Norte 0 -- -- 71
2017-11-14 03:00:00 19.6 6 Nordeste 18 Norte 0 -- -- 72
2017-11-14 02:00:00 19.1 4 Noroeste 13 Nordeste 0 -- -- 74
2017-11-14 01:00:00 19.6 10 Nordeste 21 Norte 0 -- -- 73
2017-11-14 00:00:00 19.9 7 Norte 15 Norte 0 -- -- 75
2017-11-13 23:00:00 19.9 4 Norte 19 Norte 0 -- -- 75
2017-11-13 22:00:00 20.2 8 Norte 17 Norte 0 -- -- 75
2017-11-13 21:00:00 20.1 5 Nordeste 14 Norte 0 -- -- 75
2017-11-13 20:00:00 20 3 Nordeste 13 Norte 0 -- -- 76
2017-11-13 19:00:00 20.2 5 Norte 12 Norte 0 -- -- 77
2017-11-13 18:00:00 20.4 2 Nordeste 12 Norte 0 -- -- 75
2017-11-13 17:00:00 21.2 5 Nordeste 14 Nordeste 0 -- -- 73
2017-11-13 16:00:00 22 6 Nordeste 14 Nordeste 0 -- -- 68
2017-11-13 15:00:00 22.4 8 Nordeste 14 Nordeste 0 -- -- 69
2017-11-13 14:00:00 22.5 10 Nordeste 20 Este 0 -- -- 68
2017-11-13 13:00:00 22.5 13 Nordeste 20 Nordeste 0 -- -- 70
2017-11-13 12:00:00 22.4 12 Nordeste 21 Este 0 -- -- 70
2017-11-13 11:00:00 22.4 12 Nordeste 19 Este 0 -- -- 70
2017-11-13 10:00:00 21.6 9 Este 16 Este 0 -- -- 74
2017-11-13 09:00:00 20.3 8 Sudeste 14 Sudeste 0 -- -- 77
2017-11-13 08:00:00 18.6 8 Sudeste 12 Sudeste 0 -- -- 84
2017-11-13 07:00:00 17.9 5 Sudeste 10 Sudeste 0 -- -- 86
2017-11-13 06:00:00 17.8 7 Sur 10 Sudeste 0 -- -- 89
2017-11-13 05:00:00 17.4 3 Sudeste 8 Sudeste 0 -- -- 90
2017-11-13 04:00:00 18.2 5 Sudeste 8 Sudeste 0 -- -- 90
2017-11-13 03:00:00 18.6 5 Sudeste 10 Sudeste 0 -- -- 87
2017-11-13 02:00:00 19.2 6 Sudeste 13 Sudeste 0 -- -- 84
2017-11-13 01:00:00 19.2 7 Sur 10 Sudeste 0 -- -- 86
2017-11-13 00:00:00 19.3 4 Sudeste 8 Sudeste 0 -- -- 89
2017-11-12 23:00:00 19.3 4 Este 8 Sudeste 0 -- -- 85
2017-11-12 22:00:00 20.2 5 Sudeste 12 Este 0 -- -- 85
2017-11-12 21:00:00 20.6 7 Este 11 Este 0 -- -- 81
2017-11-12 20:00:00 20.3 4 Sudeste 13 Este 0 -- -- 70
2017-11-12 19:00:00 21.3 5 Este 12 Este 0 -- -- 69
2017-11-12 18:00:00 22.2 6 Nordeste 15 Este 0 -- -- 67
2017-11-12 17:00:00 23.6 13 Este 24 Este 0 -- -- 56
2017-11-12 16:00:00 24.6 15 Este 25 Este 0 -- -- 57
2017-11-12 15:00:00 25.7 15 Este 24 Este 0 -- -- 56
2017-11-12 14:00:00 26.6 13 Este 23 Este 0 -- -- 54
2017-11-12 13:00:00 25.8 17 Este 27 Este 0 -- -- 59
2017-11-12 12:00:00 24.6 17 Este 28 Este 0 -- -- 59
2017-11-12 11:00:00 24.8 17 Este 31 Este 0 -- -- 53
2017-11-12 10:00:00 24.2 13 Este 20 Este 0 -- -- 51
2017-11-12 09:00:00 21.9 9 Este 17 Este 0 -- -- 60
2017-11-12 08:00:00 21.4 9 Sudeste 12 Sudeste 0 -- -- 47
2017-11-12 07:00:00 20.9 9 Sudeste 13 Sudeste 0 -- -- 49
2017-11-12 06:00:00 21.6 8 Sudeste 21 Sur 0 -- -- 47
2017-11-12 05:00:00 22.4 16 Sur 23 Sudeste 0 -- -- 45
2017-11-12 04:00:00 21.2 15 Sur 23 Sur 0 -- -- 55
2017-11-12 03:00:00 19.7 13 Sudeste 19 Sudeste 0 -- -- 89
2017-11-12 02:00:00 19.8 12 Sudeste 23 Sudeste 0 -- -- 92
2017-11-12 01:00:00 19.9 16 Sudeste 22 Sudeste 0 -- -- 92
2017-11-12 00:00:00 19.9 9 Sudeste 14 Sudeste 0 -- -- 92
2017-11-11 23:00:00 19.9 6 Sudeste 12 Sudeste 0 -- -- 90
2017-11-11 22:00:00 20.1 8 Sudeste 12 Sudeste 0 -- -- 90
2017-11-11 21:00:00 19.8 6 Sudeste 10 Sudeste 0 -- -- 88
2017-11-11 20:00:00 20.2 5 Sudeste 13 Este 0 -- -- 86
2017-11-11 19:00:00 20.7 8 Este 16 Este 0 -- -- 85
2017-11-11 18:00:00 21.2 11 Este 21 Este 0 -- -- 84
2017-11-11 17:00:00 22.4 14 Este 28 Este 0 -- -- 78
2017-11-11 16:00:00 23 16 Este 31 Este 0 -- -- 77
2017-11-11 15:00:00 23.6 16 Este 27 Este 0 -- -- 73
2017-11-11 14:00:00 23.3 12 Este 28 Este 0 -- -- 74
2017-11-11 13:00:00 23 18 Este 27 Este 0 -- -- 73
2017-11-11 12:00:00 23.3 12 Este 22 Este 0 -- -- 73
2017-11-11 11:00:00 22.8 14 Este 24 Este 0 -- -- 76
2017-11-11 10:00:00 22.1 12 Este 18 Este 0 -- -- 78
2017-11-11 09:00:00 20.8 10 Sudeste 16 Sudeste 0 -- -- 81
2017-11-11 08:00:00 18.9 12 Sudeste 18 Sudeste 0 -- -- 83
2017-11-11 07:00:00 18.8 9 Sudeste 15 Sudeste 0 -- -- 83
2017-11-11 06:00:00 18.9 9 Sudeste 15 Sudeste 0 -- -- 85
2017-11-11 05:00:00 19.1 8 Sudeste 15 Sudeste 0 -- -- 86
2017-11-11 04:00:00 19.2 7 Sur 21 Sudeste 0.2 -- -- 85
2017-11-11 03:00:00 19.1 9 Sudeste 15 Sudeste 0 -- -- 83
2017-11-11 02:00:00 19 7 Sudeste 14 Sudeste 0 -- -- 85
2017-11-11 01:00:00 19.1 8 Sudeste 14 Sudeste 0 -- -- 84
2017-11-11 00:00:00 19.3 8 Sudeste 15 Este 0 -- -- 83
2017-11-10 23:00:00 20 9 Este 17 Este 0 -- -- 82
2017-11-10 22:00:00 20.1 10 Este 21 Este 0 -- -- 80
2017-11-10 21:00:00 20.3 12 Este 20 Este 0 -- -- 79
2017-11-10 20:00:00 20.5 11 Este 20 Sudeste 0 -- -- 78
2017-11-10 19:00:00 20.6 11 Este 20 Este 0 -- -- 78
2017-11-10 18:00:00 21 10 Este 22 Este 0 -- -- 76
2017-11-10 17:00:00 22 10 Este 23 Este 0 -- -- 72
2017-11-10 16:00:00 22.6 12 Este 23 Este 0 -- -- 69
2017-11-10 15:00:00 23 13 Este 26 Nordeste 0 -- -- 69
2017-11-10 14:00:00 23 15 Este 26 Este 0 -- -- 70
2017-11-10 13:00:00 22.9 18 Este 26 Este 0 -- -- 69
2017-11-10 12:00:00 22.8 17 Este 28 Este 0 -- -- 73
2017-11-10 11:00:00 22.4 13 Este 23 Este 0 -- -- 74
2017-11-10 10:00:00 21.6 12 Este 23 Nordeste 0 -- -- 79
2017-11-10 09:00:00 20.9 10 Este 21 Este 0 -- -- 83
2017-11-10 08:00:00 20.4 10 Este 20 Este 0 -- -- 86
2017-11-10 07:00:00 19.5 8 Sudeste 15 Sudeste 0 -- -- 84
2017-11-10 06:00:00 19.5 8 Sudeste 16 Sudeste 0 -- -- 84
2017-11-10 05:00:00 19.6 10 Sudeste 18 Sudeste 0 -- -- 83
2017-11-10 04:00:00 19.9 13 Sudeste 21 Sudeste 0 -- -- 83
2017-11-10 03:00:00 20.1 9 Sudeste 15 Sudeste 0 -- -- 85
2017-11-10 02:00:00 20.3 8 Este 17 Este 0 -- -- 84
2017-11-10 01:00:00 20.9 10 Este 24 Este 0 -- -- 85
2017-11-10 00:00:00 20.9 13 Nordeste 24 Nordeste 0 -- -- 88
2017-11-09 23:00:00 21.1 3 Nordeste 9 Nordeste 0 -- -- 89
2017-11-09 22:00:00 20.9 3 Este 11 Nordeste 0 -- -- 89
2017-11-09 21:00:00 21.1 7 Nordeste 14 Este 0 -- -- 88
2017-11-09 20:00:00 21.1 9 Nordeste 20 Nordeste 0 -- -- 88
2017-11-09 19:00:00 21.4 13 Nordeste 24 Nordeste 0 -- -- 87
2017-11-09 18:00:00 21.6 4 Este 14 Este 0 -- -- 81
2017-11-09 17:00:00 22.3 9 Este 17 Este 0 -- -- 80
2017-11-09 16:00:00 22.5 8 Nordeste 15 Este 0 -- -- 75
2017-11-09 15:00:00 23.4 11 Nordeste 19 Nordeste 0 -- -- 71
2017-11-09 14:00:00 23.1 7 Nordeste 14 Nordeste 0 -- -- 78
2017-11-09 13:00:00 23.5 6 Norte 13 Norte 0 -- -- 76
2017-11-09 12:00:00 23.9 6 Nordeste 14 Nordeste 0 -- -- 75
2017-11-09 11:00:00 23.4 8 Nordeste 13 Nordeste 0 -- -- 78
2017-11-09 10:00:00 23.1 6 Nordeste 12 Este 0 -- -- 78
2017-11-09 09:00:00 22.3 4 Este 10 Sudeste 0 -- -- 83
2017-11-09 08:00:00 20.9 5 Sudeste 12 Nordeste 0 -- -- 87
2017-11-09 07:00:00 20.8 8 Este 14 Nordeste 0 -- -- 88
2017-11-09 06:00:00 20.6 5 Nordeste 12 Nordeste 0 -- -- 90
2017-11-09 05:00:00 20.4 4 Oeste 10 Oeste 0 -- -- 88
2017-11-09 04:00:00 20.9 6 Noroeste 11 Noroeste 0 -- -- 88
2017-11-09 03:00:00 20.8 4 Norte 10 Norte 0 -- -- 87
2017-11-09 02:00:00 21 3 Norte 10 Nordeste 0 -- -- 88
2017-11-09 01:00:00 21.1 3 Nordeste 9 Nordeste 0 -- -- 88
2017-11-09 00:00:00 20.8 6 Este 11 Este 0 -- -- 88
2017-11-08 23:00:00 20.3 0 Calma 5 Noroeste 0 -- -- 90
2017-11-08 22:00:00 20.7 0 Calma 5 Norte 0 -- -- 91
2017-11-08 21:00:00 19.4 2 Oeste 4 Oeste 0 -- -- 89
2017-11-08 20:00:00 20.3 2 Oeste 5 Sudoeste 0 -- -- 88
2017-11-08 19:00:00 21 2 Oeste 5 Nordeste 0 -- -- 86
2017-11-08 18:00:00 22.4 0 Calma 8 Norte 0 -- -- 87
2017-11-08 17:00:00 23.3 5 Nordeste 9 Norte 0 -- -- 82
2017-11-08 16:00:00 24.2 4 Norte 12 Norte 0 -- -- 77
2017-11-08 15:00:00 24.3 4 Norte 13 Noroeste 0 -- -- 79
2017-11-08 14:00:00 24.1 7 Noroeste 14 Noroeste 0 -- -- 78
2017-11-08 13:00:00 24.3 7 Noroeste 12 Noroeste 0 -- -- 77
2017-11-08 12:00:00 24 5 Norte 11 Noroeste 0 -- -- 78
2017-11-08 11:00:00 23.7 5 Norte 12 Norte 0 -- -- 78
2017-11-08 10:00:00 23.5 4 Norte 8 Norte 0 -- -- 81
2017-11-08 09:00:00 22.5 2 Este 10 Sudoeste 0 -- -- 87
2017-11-08 08:00:00 20.3 7 Sudoeste 16 Sudoeste 0 -- -- 92
2017-11-08 07:00:00 19 4 Sudoeste 13 Sudoeste 0 -- -- 91
2017-11-08 06:00:00 19.3 3 Oeste 8 Sudoeste 0 -- -- 93
2017-11-08 05:00:00 18.6 3 Oeste 7 Sudoeste 0 -- -- 92
2017-11-08 04:00:00 19.2 0 Calma 9 Sur 0 -- -- 89
2017-11-08 03:00:00 20 3 Sudoeste 7 Noroeste 0 -- -- 88
2017-11-08 02:00:00 20.7 3 Norte 10 Norte 0 -- -- 87
2017-11-08 01:00:00 20.9 3 Nordeste 10 Norte 0 -- -- 87
2017-11-08 00:00:00 20.9 5 Norte 15 Norte 0 -- -- 85
2017-11-07 23:00:00 21.3 6 Norte 16 Norte 0 -- -- 85
2017-11-07 22:00:00 21.3 7 Norte 17 Norte 0 -- -- 85
2017-11-07 21:00:00 21.4 7 Norte 19 Norte 0 -- -- 84
2017-11-07 20:00:00 21.4 5 Norte 13 Norte 0 -- -- 84
2017-11-07 19:00:00 21.4 7 Norte 15 Norte 0 -- -- 83
2017-11-07 18:00:00 21.7 8 Norte 19 Norte 0 -- -- 81
2017-11-07 17:00:00 22.3 10 Norte 20 Norte 0 -- -- 78
2017-11-07 16:00:00 22.7 10 Norte 19 Norte 0 -- -- 76
2017-11-07 15:00:00 22.8 11 Norte 20 Norte 0 -- -- 75
2017-11-07 14:00:00 23.4 9 Norte 20 Norte 0 -- -- 74
2017-11-07 13:00:00 22.6 8 Nordeste 19 Norte 0 -- -- 76
2017-11-07 12:00:00 23.4 10 Nordeste 18 Nordeste 0 -- -- 71
2017-11-07 11:00:00 22.9 9 Nordeste 17 Norte 0 -- -- 73
2017-11-07 10:00:00 22.4 9 Nordeste 15 Nordeste 0 -- -- 76
2017-11-07 09:00:00 21.5 5 Este 17 Nordeste 0 -- -- 77
2017-11-07 08:00:00 20.9 8 Nordeste 18 Nordeste 0 -- -- 80
2017-11-07 07:00:00 20.8 10 Nordeste 19 Nordeste 0 -- -- 79
2017-11-07 06:00:00 20.5 5 Nordeste 15 Nordeste 0 -- -- 81
2017-11-07 05:00:00 20.6 7 Nordeste 19 Nordeste 0 -- -- 79
2017-11-07 04:00:00 20.3 4 Nordeste 17 Nordeste 0 -- -- 79
2017-11-07 03:00:00 20.5 7 Nordeste 20 Nordeste 0 -- -- 78
2017-11-07 02:00:00 20.5 6 Norte 16 Nordeste 0 -- -- 76
2017-11-07 01:00:00 20.6 6 Norte 17 Nordeste 0 -- -- 77
2017-11-07 00:00:00 20.6 6 Norte 14 Norte 0 -- -- 77
2017-11-06 23:00:00 20.7 9 Nordeste 15 Nordeste 0 -- -- 77
2017-11-06 22:00:00 20.6 7 Nordeste 17 Nordeste 0 -- -- 76
2017-11-06 21:00:00 20.8 10 Nordeste 19 Nordeste 0 -- -- 76
2017-11-06 20:00:00 20.8 10 Nordeste 19 Nordeste 0 -- -- 76
2017-11-06 19:00:00 20.9 8 Nordeste 20 Norte 0 -- -- 76
2017-11-06 18:00:00 21.1 7 Nordeste 18 Nordeste 0 -- -- 76
2017-11-06 17:00:00 21.3 9 Nordeste 19 Nordeste 0 -- -- 72
2017-11-06 16:00:00 21.9 9 Nordeste 19 Nordeste 0 -- -- 74
2017-11-06 15:00:00 22.1 9 Nordeste 19 Nordeste 0 -- -- 71
2017-11-06 14:00:00 22.8 9 Nordeste 18 Nordeste 0 -- -- 68
2017-11-06 13:00:00 22.1 9 Nordeste 19 Nordeste 0 -- -- 72
2017-11-06 12:00:00 22.2 8 Nordeste 23 Nordeste 0 -- -- 69
2017-11-06 11:00:00 21.6 11 Nordeste 28 Nordeste 0 -- -- 72
2017-11-06 10:00:00 21 12 Nordeste 26 Nordeste 0 -- -- 75
2017-11-06 09:00:00 20.8 14 Nordeste 28 Nordeste 0 -- -- 74
2017-11-06 08:00:00 20.6 14 Nordeste 28 Nordeste 0 -- -- 77
2017-11-06 07:00:00 20.5 14 Nordeste 25 Este 0 -- -- 78
2017-11-06 06:00:00 20.4 12 Nordeste 24 Nordeste 0 -- -- 80
2017-11-06 05:00:00 20 12 Nordeste 23 Nordeste 0.4 -- -- 80
2017-11-06 04:00:00 20 10 Nordeste 21 Nordeste 0 -- -- 84
2017-11-06 03:00:00 20.1 5 Este 19 Nordeste 0 -- -- 75
2017-11-06 02:00:00 20.4 11 Este 24 Nordeste 0 -- -- 72
2017-11-06 01:00:00 20.6 12 Nordeste 23 Este 0 -- -- 72
2017-11-06 00:00:00 20.7 10 Este 23 Este 0 -- -- 75
2017-11-05 23:00:00 20.9 14 Nordeste 28 Nordeste 0 -- -- 74
2017-11-05 22:00:00 20.9 10 Nordeste 22 Nordeste 0 -- -- 74
2017-11-05 21:00:00 21 9 Este 21 Este 0 -- -- 76
2017-11-05 20:00:00 21.1 10 Nordeste 21 Nordeste 0 -- -- 75
2017-11-05 19:00:00 21.3 9 Nordeste 23 Nordeste 0 -- -- 72
2017-11-05 18:00:00 21.4 10 Nordeste 23 Norte 0 -- -- 73
2017-11-05 17:00:00 21.8 10 Nordeste 23 Nordeste 0 -- -- 72
2017-11-05 16:00:00 22.2 12 Nordeste 24 Nordeste 0 -- -- 69
2017-11-05 15:00:00 22.4 10 Nordeste 24 Nordeste 0 -- -- 72
2017-11-05 14:00:00 23.5 11 Nordeste 21 Nordeste 0 -- -- 67
2017-11-05 13:00:00 24.1 11 Nordeste 21 Nordeste 0 -- -- 61
2017-11-05 12:00:00 23.8 12 Nordeste 20 Nordeste 0 -- -- 66
2017-11-05 11:00:00 23.4 13 Nordeste 22 Nordeste 0 -- -- 64
2017-11-05 10:00:00 22.6 11 Nordeste 22 Nordeste 0 -- -- 67
2017-11-05 09:00:00 21.7 13 Nordeste 25 Nordeste 0 -- -- 71
2017-11-05 08:00:00 20.8 8 Nordeste 20 Nordeste 0 -- -- 75
2017-11-05 07:00:00 20.5 12 Nordeste 30 Este 0 -- -- 73
2017-11-05 06:00:00 20.3 6 Nordeste 19 Nordeste 0 -- -- 76
2017-11-05 05:00:00 20.5 9 Nordeste 18 Nordeste 0 -- -- 76
2017-11-05 04:00:00 20.5 9 Nordeste 21 Nordeste 0 -- -- 76
2017-11-05 03:00:00 20.7 12 Nordeste 25 Nordeste 0 -- -- 76
2017-11-05 02:00:00 20.6 9 Nordeste 21 Nordeste 0 -- -- 76
2017-11-05 01:00:00 20.6 7 Este 17 Nordeste 0 -- -- 77
2017-11-05 00:00:00 20.8 8 Nordeste 18 Nordeste 0 -- -- 76
2017-11-04 23:00:00 20.8 9 Este 19 Nordeste 0 -- -- 75
2017-11-04 22:00:00 20.8 9 Nordeste 19 Nordeste 0 -- -- 71
2017-11-04 21:00:00 20.9 8 Nordeste 17 Nordeste 0 -- -- 74
2017-11-04 20:00:00 20.9 8 Nordeste 17 Este 0 -- -- 75
2017-11-04 19:00:00 21.1 9 Nordeste 16 Nordeste 0 -- -- 73
2017-11-04 18:00:00 21.2 8 Nordeste 16 Este 0 -- -- 74
2017-11-04 17:00:00 21.8 7 Nordeste 17 Nordeste 0 -- -- 73
2017-11-04 16:00:00 21.7 10 Nordeste 19 Nordeste 0 -- -- 74
2017-11-04 15:00:00 23 9 Nordeste 19 Nordeste 0 -- -- 69
2017-11-04 14:00:00 22.5 10 Nordeste 18 Nordeste 0 -- -- 70
2017-11-04 13:00:00 23.1 9 Nordeste 17 Nordeste 0 -- -- 70
2017-11-04 12:00:00 23.5 10 Nordeste 20 Nordeste 0 -- -- 65
2017-11-04 11:00:00 22 11 Nordeste 22 Nordeste 0 -- -- 73
2017-11-04 10:00:00 20.8 5 Este 15 Este 0 -- -- 81
2017-11-04 09:00:00 21.9 6 Nordeste 14 Norte 0 -- -- 74
2017-11-04 08:00:00 20.7 8 Nordeste 15 Norte 0 -- -- 77
2017-11-04 07:00:00 20.3 4 Norte 14 Norte 0 -- -- 81
2017-11-04 06:00:00 20.4 7 Norte 15 Norte 0 -- -- 78
2017-11-04 05:00:00 20.5 8 Norte 18 Norte 0 -- -- 79
2017-11-04 04:00:00 20.6 8 Norte 17 Norte 0 -- -- 79
2017-11-04 03:00:00 20.7 7 Norte 17 Norte 0 -- -- 82
2017-11-04 02:00:00 19.7 6 Oeste 13 Oeste 0 -- -- 86
2017-11-04 01:00:00 19.8 4 Sudoeste 10 Sudoeste 0.2 -- -- 86
2017-11-04 00:00:00 20.2 6 Sudoeste 12 Sudoeste 0 -- -- 79
2017-11-03 23:00:00 19.5 5 Sudoeste 7 Sudoeste 0 -- -- 84
2017-11-03 22:00:00 19.8 5 Sudoeste 6 Sudoeste 0 -- -- 82
2017-11-03 21:00:00 20.8 3 Noroeste 10 Noroeste 0 -- -- 79
2017-11-03 20:00:00 21.2 6 Noroeste 13 Oeste 0 -- -- 78
2017-11-03 19:00:00 21.2 8 Noroeste 15 Oeste 0 -- -- 80
2017-11-03 18:00:00 21.3 8 Noroeste 18 Noroeste 0 -- -- 82
2017-11-03 17:00:00 21.6 11 Noroeste 23 Noroeste 0 -- -- 82
2017-11-03 16:00:00 23.6 7 Noroeste 15 Noroeste 0 -- -- 68
2017-11-03 15:00:00 24.1 6 Noroeste 14 Norte 0 -- -- 68
2017-11-03 14:00:00 23.9 6 Norte 13 Norte 0 -- -- 68
2017-11-03 13:00:00 23.7 6 Norte 12 Norte 0 -- -- 66
2017-11-03 12:00:00 23.5 5 Norte 11 Nordeste 0 -- -- 67
2017-11-03 11:00:00 23.5 5 Noroeste 13 Noroeste 0 -- -- 67
2017-11-03 10:00:00 23.2 6 Norte 10 Norte 0 -- -- 68
2017-11-03 09:00:00 22.1 3 Norte 9 Noroeste 0 -- -- 72
2017-11-03 08:00:00 21.1 4 Norte 10 Norte 0 -- -- 76
2017-11-03 07:00:00 20.7 4 Noroeste 13 Sudoeste 0 -- -- 77
2017-11-03 06:00:00 20.4 6 Oeste 13 Oeste 0 -- -- 75
2017-11-03 05:00:00 20.1 5 Sudoeste 10 Sudoeste 0 -- -- 74
2017-11-03 04:00:00 19.8 6 Sudoeste 10 Sudoeste 0 -- -- 75
2017-11-03 03:00:00 19.9 7 Sudoeste 11 Sudoeste 0 -- -- 73
2017-11-03 02:00:00 19.8 8 Sudoeste 10 Sudoeste 0 -- -- 73
2017-11-03 01:00:00 19.6 6 Sudoeste 9 Sudoeste 0 -- -- 72
2017-11-03 00:00:00 19.7 6 Sudoeste 10 Sudoeste 0 -- -- 71
2017-11-02 23:00:00 18.7 6 Sudoeste 10 Sudoeste 0 -- -- 74
2017-11-02 22:00:00 19.3 8 Sudoeste 10 Sudoeste 0 -- -- 71
2017-11-02 21:00:00 18.7 5 Sudoeste 9 Sudoeste 0 -- -- 72
2017-11-02 20:00:00 19.1 6 Sudoeste 9 Sudoeste 0 -- -- 72
2017-11-02 19:00:00 19.9 4 Oeste 10 Noroeste 0 -- -- 71
2017-11-02 18:00:00 21.2 5 Noroeste 14 Noroeste 0 -- -- 67
2017-11-02 17:00:00 22.5 6 Noroeste 17 Noroeste 0 -- -- 62
2017-11-02 16:00:00 22.7 9 Noroeste 19 Noroeste 0 -- -- 61
2017-11-02 15:00:00 23.2 9 Noroeste 17 Norte 0 -- -- 58
2017-11-02 14:00:00 23.4 9 Noroeste 17 Noroeste 0 -- -- 61
2017-11-02 13:00:00 23.5 8 Norte 16 Nordeste 0 -- -- 59
2017-11-02 12:00:00 23.2 7 Norte 14 Norte 0 -- -- 59
2017-11-02 11:00:00 23.5 5 Norte 14 Norte 0 -- -- 60
2017-11-02 10:00:00 22.2 5 Nordeste 11 Norte 0 -- -- 63
2017-11-02 09:00:00 21.3 3 Norte 13 Nordeste 0 -- -- 65
2017-11-02 08:00:00 20.6 5 Norte 10 Norte 0 -- -- 67
2017-11-02 07:00:00 20.2 3 Nordeste 10 Norte 0 -- -- 71
2017-11-02 06:00:00 20.2 7 Norte 15 Norte 0 -- -- 68
2017-11-02 05:00:00 20.3 3 Noroeste 13 Norte 0 -- -- 72
2017-11-02 04:00:00 20.3 6 Norte 13 Norte 0 -- -- 72
2017-11-02 03:00:00 20.3 6 Norte 16 Nordeste 0 -- -- 71
2017-11-02 02:00:00 20.3 3 Norte 13 Norte 0 -- -- 71
2017-11-02 01:00:00 20.5 5 Norte 15 Norte 0 -- -- 72
2017-11-02 00:00:00 20.6 6 Norte 14 Norte 0 -- -- 71
2017-11-01 23:00:00 20.7 6 Norte 14 Norte 0 -- -- 72
2017-11-01 22:00:00 20.9 4 Norte 15 Norte 0 -- -- 73
2017-11-01 21:00:00 21 6 Norte 13 Norte 0 -- -- 75
2017-11-01 20:00:00 21.1 6 Norte 13 Norte 0 -- -- 75
2017-11-01 19:00:00 21 5 Nordeste 10 Nordeste 0 -- -- 74
2017-11-01 18:00:00 21.2 4 Nordeste 10 Nordeste 0 -- -- 73
2017-11-01 17:00:00 21.9 5 Nordeste 12 Norte 0 -- -- 70
2017-11-01 16:00:00 23 7 Nordeste 14 Nordeste 0 -- -- 67
2017-11-01 15:00:00 23.4 8 Nordeste 17 Este 0 -- -- 65
2017-11-01 14:00:00 23.5 10 Nordeste 22 Nordeste 0 -- -- 66
2017-11-01 13:00:00 23.8 13 Este 21 Este 0 -- -- 63
2017-11-01 12:00:00 23.7 13 Este 21 Este 0 -- -- 62
2017-11-01 11:00:00 23.1 12 Este 18 Este 0 -- -- 65
2017-11-01 10:00:00 21.9 8 Este 15 Este 0 -- -- 70
2017-11-01 09:00:00 22 8 Este 13 Nordeste 0 -- -- 66
2017-11-01 08:00:00 20.8 7 Nordeste 15 Nordeste 0 -- -- 72
2017-11-01 07:00:00 20.4 4 Nordeste 12 Nordeste 0 -- -- 75
2017-11-01 06:00:00 20.1 4 Este 9 Nordeste 0 -- -- 76
2017-11-01 05:00:00 19.8 5 Sudeste 10 Sudeste 0 -- -- 78
2017-11-01 04:00:00 19.9 5 Sudeste 9 Este 0 -- -- 78
2017-11-01 03:00:00 19.5 4 Sudeste 7 Sudeste 0 -- -- 81
2017-11-01 02:00:00 19.3 4 Sudeste 9 Sudeste 0 -- -- 81
2017-11-01 01:00:00 19.1 4 Sudeste 7 Este 0 -- -- 83
2017-11-01 00:00:00 19.7 4 Sur 8 Sur 0 -- -- 81
2017-10-31 23:00:00 19.4 3 Sudeste 8 Sudeste 0 -- -- 83
2017-10-31 22:00:00 19.8 3 Sudeste 8 Nordeste 0 -- -- 81
2017-10-31 21:00:00 20.9 5 Este 10 Nordeste 0 -- -- 79
2017-10-31 20:00:00 20.8 5 Nordeste 9 Nordeste 0 -- -- 81
2017-10-31 19:00:00 20.6 4 Nordeste 10 Nordeste 0 -- -- 81
2017-10-31 18:00:00 21.3 5 Este 12 Nordeste 0 -- -- 78
2017-10-31 17:00:00 22.4 6 Nordeste 12 Nordeste 0 -- -- 74
2017-10-31 16:00:00 22.9 7 Nordeste 15 Nordeste 0 -- -- 72
2017-10-31 15:00:00 23.4 9 Nordeste 19 Este 0 -- -- 70
2017-10-31 14:00:00 23.7 10 Nordeste 19 Este 0 -- -- 69
2017-10-31 13:00:00 23.3 13 Nordeste 20 Nordeste 0 -- -- 70
2017-10-31 12:00:00 23.6 11 Este 19 Nordeste 0 -- -- 67
2017-10-31 11:00:00 23 10 Este 17 Nordeste 0 -- -- 70
2017-10-31 10:00:00 22.3 10 Nordeste 14 Nordeste 0 -- -- 73
2017-10-31 09:00:00 21 5 Este 11 Este 0 -- -- 76
2017-10-31 08:00:00 19.4 4 Sudeste 6 Sudeste 0 -- -- 84
2017-10-31 07:00:00 19.3 3 Sudeste 8 Sudeste 0 -- -- 83
2017-10-31 06:00:00 18.6 0 Calma 6 Sudeste 0 -- -- 85
2017-10-31 05:00:00 19.6 2 Sudeste 9 Nordeste 0 -- -- 83
2017-10-31 04:00:00 19.3 0 Calma 10 Norte 0 -- -- 85
2017-10-31 03:00:00 19.6 0 Calma 9 Oeste 0 -- -- 85
2017-10-31 02:00:00 19.2 0 Calma 5 Oeste 0 -- -- 88
2017-10-31 01:00:00 18.8 3 Sudoeste 6 Oeste 0 -- -- 91
2017-10-31 00:00:00 17.8 0 Calma 5 Sur 0 -- -- 91
2017-10-30 23:00:00 18.5 3 Sudeste 6 Sur 0 -- -- 90
2017-10-30 22:00:00 19 4 Sudeste 5 Sudeste 0 -- -- 90
2017-10-30 21:00:00 18.8 2 Sur 5 Sudeste 0 -- -- 88
2017-10-30 20:00:00 19.6 2 Sudeste 6 Norte 0 -- -- 86
2017-10-30 19:00:00 20.2 0 Calma 5 Nordeste 0 -- -- 83
2017-10-30 18:00:00 21.9 0 Calma 9 Norte 0 -- -- 78
2017-10-30 17:00:00 22.9 5 Norte 12 Nordeste 0 -- -- 75
2017-10-30 16:00:00 23.2 6 Norte 13 Nordeste 0 -- -- 74
2017-10-30 15:00:00 23.6 8 Nordeste 13 Nordeste 0 -- -- 73
2017-10-30 14:00:00 23.9 7 Nordeste 15 Nordeste 0 -- -- 72
2017-10-30 13:00:00 23.6 9 Nordeste 15 Nordeste 0 -- -- 73
2017-10-30 12:00:00 23.2 7 Nordeste 13 Norte 0 -- -- 73
2017-10-30 11:00:00 23 6 Nordeste 13 Nordeste 0 -- -- 73
2017-10-30 10:00:00 22.2 4 Nordeste 11 Nordeste 0 -- -- 76
2017-10-30 09:00:00 21.1 3 Nordeste 6 Este 0.2 -- -- 80
2017-10-30 08:00:00 18.4 3 Sur 5 Sudoeste 0 -- -- 90
2017-10-30 07:00:00 17.8 2 Sudoeste 5 Sudoeste 0 -- -- 89
2017-10-30 06:00:00 17.8 3 Oeste 6 Oeste 0 -- -- 86
2017-10-30 05:00:00 19.4 2 Oeste 7 Este 0 -- -- 82
2017-10-30 04:00:00 19.8 3 Norte 10 Norte 0 -- -- 80
2017-10-30 03:00:00 19.6 4 Nordeste 12 Nordeste 0 -- -- 82
2017-10-30 02:00:00 19.5 3 Oeste 8 Oeste 0 -- -- 82
2017-10-30 01:00:00 20.3 3 Noroeste 11 Norte 0 -- -- 79
2017-10-30 00:00:00 20.4 4 Noroeste 13 Norte 0 -- -- 79
2017-10-29 23:00:00 20.7 3 Noroeste 11 Norte 0 -- -- 78
2017-10-29 22:00:00 21.1 6 Norte 13 Norte 0 -- -- 78
2017-10-29 21:00:00 21.1 4 Noroeste 11 Noroeste 0 -- -- 79
2017-10-29 20:00:00 21.3 4 Noroeste 10 Noroeste 0 -- -- 79
2017-10-29 19:00:00 21.6 5 Noroeste 12 Noroeste 0 -- -- 80
2017-10-29 18:00:00 22 3 Norte 11 Norte 0 -- -- 79
2017-10-29 17:00:00 22.9 6 Norte 13 Norte 0 -- -- 78
2017-10-29 16:00:00 23.4 6 Norte 12 Norte 0 -- -- 75
2017-10-29 15:00:00 23.6 7 Norte 13 Noroeste 0 -- -- 76
2017-10-29 14:00:00 23.2 6 Norte 12 Nordeste 0 -- -- 78
2017-10-29 13:00:00 23.5 6 Norte 14 Nordeste 0 -- -- 78
2017-10-29 12:00:00 23.9 7 Nordeste 13 Nordeste 0 -- -- 75
2017-10-29 11:00:00 23.2 10 Nordeste 15 Nordeste 0 -- -- 77
2017-10-29 10:00:00 22.9 9 Nordeste 15 Nordeste 0 -- -- 78
2017-10-29 09:00:00 22 8 Este 12 Este 0 -- -- 81
2017-10-29 08:00:00 20.1 5 Sudeste 9 Sudeste 0 -- -- 86
2017-10-29 07:00:00 18.3 4 Sudeste 8 Sudeste 0 -- -- 87
2017-10-29 06:00:00 19.5 5 Sudeste 9 Este 0 -- -- 88
2017-10-29 05:00:00 19.2 5 Sudeste 9 Sudeste 0 -- -- 82
2017-10-29 04:00:00 17 3 Sudeste 6 Sudeste 0 -- -- 61
2017-10-29 03:00:00 18.5 2 Sur 9 Este 0 -- -- 60
2017-10-29 02:00:00 21.5 5 Sudeste 11 Sudeste 0 -- -- 42
2017-10-29 01:00:00 21.8 6 Sudeste 14 Sur 0 -- -- 43
2017-10-29 00:00:00 21.9 7 Sudeste 13 Sudeste 0 -- -- 50
2017-10-28 23:00:00 22.7 9 Sudeste 14 Sudeste 0 -- -- 43
2017-10-28 22:00:00 23 10 Sudeste 17 Sudeste 0 -- -- 53
2017-10-28 21:00:00 22 9 Sudeste 12 Sudeste 0 -- -- 68
2017-10-28 20:00:00 23 9 Este 14 Este 0 -- -- 61
2017-10-28 19:00:00 23.6 10 Este 20 Este 0 -- -- 69
2017-10-28 18:00:00 24.3 12 Este 22 Este 0 -- -- 63
2017-10-28 17:00:00 27.3 14 Este 26 Este 0 -- -- 34
2017-10-28 16:00:00 29.3 15 Este 25 Sudeste 0 -- -- 26
2017-10-28 15:00:00 30.4 16 Sudeste 32 Sudeste 0 -- -- 24
2017-10-28 14:00:00 30.2 18 Sudeste 32 Sudeste 0 -- -- 24
2017-10-28 13:00:00 29.5 18 Sudeste 31 Sudeste 0 -- -- 23
2017-10-28 12:00:00 28.7 22 Sudeste 39 Sudeste 0 -- -- 25
2017-10-28 11:00:00 27.7 21 Sudeste 32 Sudeste 0 -- -- 27
2017-10-28 10:00:00 26.6 17 Sudeste 27 Sudeste 0 -- -- 27
2017-10-28 09:00:00 25.9 15 Sudeste 26 Sudeste 0 -- -- 26
2017-10-28 08:00:00 25.7 13 Sudeste 25 Sudeste 0 -- -- 26
2017-10-28 07:00:00 25.4 12 Sudeste 23 Sudeste 0 -- -- 26
2017-10-28 06:00:00 25.5 13 Sudeste 24 Sur 0 -- -- 26
2017-10-28 05:00:00 25.7 13 Sudeste 29 Sudeste 0 -- -- 26
2017-10-28 04:00:00 24.4 13 Sudeste 23 Sudeste 0 -- -- 31
2017-10-28 03:00:00 23.3 11 Sudeste 18 Sudeste 0 -- -- 39
2017-10-28 02:00:00 23.9 12 Sudeste 20 Sudeste 0 -- -- 39
2017-10-28 01:00:00 24.2 11 Sudeste 16 Sur 0 -- -- 35
2017-10-28 00:00:00 23.5 9 Sudeste 13 Sudeste 0 -- -- 34
2017-10-27 23:00:00 24.3 8 Sudeste 15 Sur 0 -- -- 33
2017-10-27 22:00:00 24.7 9 Sudeste 14 Este 0 -- -- 33
2017-10-27 21:00:00 24.5 9 Este 15 Este 0 -- -- 37
2017-10-27 20:00:00 25.7 8 Este 17 Este 0 -- -- 32
2017-10-27 19:00:00 27.2 13 Este 27 Este 0 -- -- 28
2017-10-27 18:00:00 29.1 16 Sudeste 32 Sudeste 0 -- -- 25
2017-10-27 17:00:00 29.5 21 Sudeste 37 Este 0 -- -- 26
2017-10-27 16:00:00 29.9 21 Sudeste 35 Sudeste 0 -- -- 28
2017-10-27 15:00:00 29.3 21 Sudeste 37 Este 0 -- -- 30
2017-10-27 14:00:00 29.4 22 Este 36 Sudeste 0 -- -- 32
2017-10-27 13:00:00 28.3 19 Este 35 Este 0 -- -- 34
2017-10-27 12:00:00 28 20 Sudeste 42 Sudeste 0 -- -- 32
2017-10-27 11:00:00 27.4 25 Sudeste 44 Este 0 -- -- 31
2017-10-27 10:00:00 26.6 23 Sudeste 36 Sudeste 0 -- -- 33
2017-10-27 09:00:00 25.4 19 Sudeste 33 Sudeste 0 -- -- 34
2017-10-27 08:00:00 25.1 18 Sudeste 33 Sudeste 0 -- -- 36
2017-10-27 07:00:00 25.3 19 Sudeste 36 Sudeste 0 -- -- 38
2017-10-27 06:00:00 26 22 Sudeste 50 Este 0 -- -- 35
2017-10-27 05:00:00 26 22 Sudeste 48 Este 0 -- -- 36
2017-10-27 04:00:00 26 25 Sudeste 41 Sudeste 0 -- -- 38
2017-10-27 03:00:00 26.5 23 Sudeste 40 Sudeste 0 -- -- 36
2017-10-27 02:00:00 26.8 21 Sudeste 32 Sudeste 0 -- -- 31
2017-10-27 01:00:00 26 14 Sudeste 22 Sudeste 0 -- -- 31
2017-10-27 00:00:00 25.6 13 Sudeste 22 Sudeste 0 -- -- 34
2017-10-26 23:00:00 25.2 18 Este 29 Este 0 -- -- 43
2017-10-26 22:00:00 26.9 9 Sudeste 17 Sudeste 0 -- -- 26
2017-10-26 21:00:00 28.1 11 Sudeste 18 Sudeste 0 -- -- 25
2017-10-26 20:00:00 28.9 10 Sudeste 23 Sudeste 0 -- -- 26
2017-10-26 19:00:00 29.2 13 Sudeste 31 Sudeste 0 -- -- 25
2017-10-26 18:00:00 31.2 14 Sudeste 30 Sudeste 0 -- -- 23
2017-10-26 17:00:00 31.9 15 Sudeste 31 Sudeste 0 -- -- 25
2017-10-26 16:00:00 32.6 15 Sudeste 27 Este 0 -- -- 25
2017-10-26 15:00:00 31.7 15 Este 35 Sudeste 0 -- -- 32
2017-10-26 14:00:00 32.5 20 Sudeste 40 Sudeste 0 -- -- 24
2017-10-26 13:00:00 32.8 26 Sudeste 44 Sudeste 0 -- -- 23
2017-10-26 12:00:00 33 17 Sudeste 37 Sudeste 0 -- -- 22
2017-10-26 11:00:00 32.2 17 Sudeste 28 Sudeste 0 -- -- 23
2017-10-26 10:00:00 30.3 12 Sudeste 26 Sudeste 0 -- -- 26
2017-10-26 09:00:00 27.9 13 Sudeste 24 Sudeste 0 -- -- 29
2017-10-26 08:00:00 26.8 15 Sudeste 27 Sudeste 0 -- -- 30
2017-10-26 07:00:00 26.3 16 Sudeste 35 Sudeste 0 -- -- 31
2017-10-26 06:00:00 25.6 21 Sudeste 31 Sur 0 -- -- 35
2017-10-26 05:00:00 27.8 9 Sur 17 Sur 0 -- -- 28
2017-10-26 04:00:00 27.2 11 Sur 23 Sur 0 -- -- 30
2017-10-26 03:00:00 26.8 12 Sudeste 17 Sudeste 0 -- -- 31
2017-10-26 02:00:00 26.2 11 Sur 14 Sur 0 -- -- 33
2017-10-26 01:00:00 25.1 7 Sudeste 11 Sur 0 -- -- 36
2017-10-26 00:00:00 26 9 Sur 13 Sur 0 -- -- 35